ADDS METAR Data INFO
IDs: Format: Raw Decoded Include TAF

Data at: 1132 UTC 29 May 2017

KHOU 291053Z 00000KT 10SM SCT020 BKN170 OVC220 22/21 A2992 RMK AO2 SLP136 T02170206
KHOU 290953Z 35006KT 10SM SCT013 SCT090 BKN120 OVC200 22/19 A2988 RMK AO2 PK WND 08026/0915 RAE33 SLP123 P0001 T02220194
KHOU 290853Z 11014G20KT 10SM -RA FEW020 SCT090 OVC120 22/20 A2987 RMK AO2 SLP121 TS MOVD SE TSE26 P0007 60035 T02170200 58052
KHOU 290828Z 12012KT 10SM RA FEW020 SCT060 OVC110 22/20 A2990 RMK AO2 TS MOVD SE P0004 T02170200
KHOU 290753Z COR 08011KT 10SM -TSRA FEW020CB SCT060 OVC120 22/21 A2994 RMK AO2 LTG DSNT ALQDS SLP141 OCNL LTGICCC TS NW MOV SE P0001 T02220206
KHOU 290653Z COR 08004KT 10SM -TSRA SCT025CB BKN060 OVC110 21/21 A2998 RMK AO2 LTG DSNT ALQDS PRESFR SLP156 OCNL LTGICCC SW NW MOV SE P0027 T02110206
KHOU 290611Z 04008KT 5SM TSRA BR FEW015 BKN030CB OVC045 22/21 A3004 RMK AO2 LTG DSNT ALQDS FRQ LTGICCC TS SW-NW-N MOV SE P0008 T02170206
KHOU 290553Z 36017KT 1 1/2SM +TSRA BR FEW012 BKN020CB OVC035 21/21 A3003 RMK AO2 PK WND 04033/0532 LTG DSNT SW-N SLP173 FRQ LTGICCC ALQDS TS ALQDS MOV SE P0040 60040 T02110206 10289 20211 403220211 51024
KHOU 290538Z 02020G33KT 2SM +TSRA BR FEW010 BKN020CB OVC035 22/20 A3005 RMK AO2 PK WND 04033/0532 LTG DSNT ALQDS FRQ LTGICCC ALQDS TS ALQDS MOV SE P0016 T02170200
KHOU 290523Z 04021KT 9SM -TSRA BKN018CB BKN040 OVC080 23/19 A3006 RMK AO2 PK WND 04033/0508 LTG DSNT ALQDS FRQ LTGICCC NW-N-NE TS NW-N-NE MOV SE P0000 T02280194
KHOU 290515Z COR 04021G33KT 10SM TS BKN018CB BKN040 OVC090 23/19 A3005 RMK AO2 PK WND 04033/0508 LTG DSNT ALQDS TSE09 FRQ LTGICCC NW-N-NE TS NW-N-NE MOV SE PRESRR T02330194
KHOU 290453Z 10009KT 10SM FEW015 SCT040 BKN090 BKN250 27/24 A3001 RMK AO2 LTG DSNT ALQDS SLP167 CONS LTG DSNT W-NE T02720244
KHOU 290353Z 11007KT 10SM FEW015 SCT080 BKN250 27/24 A3000 RMK AO2 LTG DSNT E SLP161 CONS LTG DSNT NW-N T02720239
KHOU 290253Z 11003KT 10SM FEW020 SCT060 BKN080 BKN250 27/24 A2996 RMK AO2 SLP148 OCNL LTG DSNT NW T02720239 51051
KHOU 290153Z 15004KT 10SM SCT020 BKN040 BKN250 27/24 A2991 RMK AO2 SLP134 T02720239
KHOU 290108Z 18007KT 10SM BKN020 BKN030 BKN250 28/24 A2986 RMK AO2 T02780239
KHOU 290053Z 19008KT 10SM SCT020 BKN030 BKN250 28/24 A2986 RMK AO2 PRESRR SLP116 T02780239
KHOU 282353Z 17010KT 10SM FEW020 SCT035 BKN250 29/24 A2981 RMK AO2 SLP098 T02890239 10322 20289 58034
KHOU 282253Z 16009KT 10SM FEW025 SCT035 BKN250 31/24 A2984 RMK AO2 SLP109 T03060244
KHOU 282238Z 16009KT 10SM SCT025 BKN035 BKN250 31/24 A2986 RMK AO2 PRESFR T03060244
KHOU 282153Z 17010KT 10SM BKN025 BKN250 30/24 A2989 RMK AO2 SLP125 T03000239
KHOU 282053Z 16012KT 10SM SCT030 BKN250 31/24 A2991 RMK AO2 SLP130 T03060239 56013
KHOU 281953Z 15013G22KT 10SM SCT027 BKN036 BKN050 BKN250 31/24 A2991 RMK AO2 SLP132 T03060239
KHOU 281853Z 15013G19KT 10SM SCT027 BKN034 BKN250 32/24 A2993 RMK AO2 SLP138 T03170244
KHOU 281753Z 16011KT 10SM SCT025 BKN037 BKN250 32/24 A2994 RMK AO2 SLP143 T03170239 10317 20261 58006
KHOU 281653Z 13006KT 10SM SCT028 BKN050 BKN250 31/24 A2996 RMK AO2 SLP148 T03110239
KHOU 281553Z 09005KT 10SM SCT030 BKN040 BKN120 BKN250 30/24 A2998 RMK AO2 SLP154 T03000239
KHOU 281500Z VRB03KT 10SM SCT022 OVC037 29/24 A2996 RMK AO2 T02890239
KHOU 281453Z COR 00000KT 10SM SCT030 BKN037 BKN120 BKN250 29/24 A2996 RMK AO2 SLP150 T02940239 51034
KHOU 281353Z 19005KT 10SM BKN028 BKN120 BKN250 28/24 A2993 RMK AO2 SLP139 T02780239
KHOU 281253Z 00000KT 6SM BR BKN024 BKN250 27/24 A2990 RMK AO2 PRESRR SLP130 T02670244
KHOU 281153Z 18006KT 5SM BR BKN022 BKN250 26/24 A2986 RMK AO2 SLP116 T02610239 10267 20256 53004
KHOU 281053Z 17007KT 9SM BKN016 26/24 A2983 RMK AO2 SLP105 T02610239
KHOU 281039Z 16005KT 9SM BKN016 26/24 A2983 RMK AO2 T02560239
KHOU 281004Z 16005KT 9SM SCT025 26/24 A2982 RMK AO2 T02610239
KHOU 280953Z 16006KT 10SM BKN025 26/24 A2982 RMK AO2 SLP102 T02610239
KHOU 280853Z 19005KT 10SM BKN022 BKN030 27/24 A2985 RMK AO2 SLP110 T02670239 57005
KHOU 280753Z 19006KT 10SM BKN022 26/24 A2985 RMK AO2 SLP113 T02610239
KHOU 280751Z 19007KT 10SM BKN022 27/24 A2985 RMK AO2
KHOU 280734Z 20007KT 10SM SCT022 26/24 A2986 RMK AO2 T02610244
KHOU 280653Z 18010KT 10SM SCT010 SCT016 BKN022 27/24 A2986 RMK AO2 SLP116 T02670244
KHOU 280622Z 19009KT 10SM SCT012 BKN022 BKN250 27/24 A2986 RMK AO2 T02670244
KHOU 280553Z 18008KT 10SM BKN010 BKN022 BKN250 27/24 A2986 RMK AO2 SLP114 T02670244 10289 20261 403220261 58007
KHOU 280453Z 16009KT 10SM SCT009 BKN018 BKN250 26/24 A2986 RMK AO2 SLP117 T02610244
KHOU 280438Z 17010KT 10SM SCT009 BKN018 BKN250 26/25 A2987 RMK AO2 T02610250
KHOU 280353Z 16007KT 10SM SCT009 SCT018 BKN250 26/24 A2988 RMK AO2 SLP121 T02610244
KHOU 280328Z 17010KT 10SM BKN009 BKN018 BKN250 26/24 A2988 RMK AO2 T02610244
KHOU 280253Z 17009KT 10SM BKN012 BKN250 26/24 A2988 RMK AO2 SLP122 T02610244 53001
KHOU 280153Z 15009KT 10SM SCT017 BKN250 27/24 A2988 RMK AO2 SLP121 T02670239
KHOU 280053Z 18010KT 10SM FEW022 BKN250 28/23 A2987 RMK AO2 SLP119 T02780233
KHOU 272353Z 16012G18KT 10SM FEW025 FEW120 SCT180 BKN250 29/23 A2987 RMK AO2 SLP121 T02890233 10322 20289 56005


Page loaded:  11:32 UTC  |   04:32 AM Pacific  |   05:32 AM Mountain  |   06:32 AM Central  |   07:32 AM Eastern

 

ADVISORIES

FORECASTS

FORECASTS

OBSERVATIONS

USER TOOLS

ABOUT US